Denton, Montana
Current Conditions -  °F | °C
As of 10:54 AM on Sunday 25 Jan 2015 (Local Time) from KLWT Reporting Station
Clear Clear  
Wind Chill: 40°   Ceiling: Unl
Heat Index: 44°   Visibility: 10mi
Dew Point: 33°   Wind: 8mph
Humidity: 65%   Direction: 220°SW
Pressure: 29.99"   Gusts: NA
Location:  47.32°N, 109.95°W
Report Text: KLWT 251754Z AUTO 22007KT 10SM CLR 07/01 A2999 RMK AO2 SLP166 T00670006 10078 20039 53008
Loading
Personal Weather Stations






























Interactive Weather Map New forecast layout! Learn more

10-Day Weather Forecast

Advertisements
Track Severe Weather on mobile